Time;durP1;ratioP1;P1;durP2;ratioP2;P2;SDS_P1;SDS_P2;PMS_P1;PMS_P2;Temp;Humidity;BMP_temperature;BMP_pressure;BME280_temperature;BME280_humidity;BME280_pressure;Samples;Min_cycle;Max_cycle;Signal;HPM_P1;HPM_P2
2022/10/16 00:02:19;;;;;;;2.58;1.30;;;;;;;20.27;60.38;100805.50;5026468;28;99416;-67
2022/10/16 00:04:46;;;;;;;2.28;1.10;;;;;;;20.42;60.35;100800.81;5020881;27;98897;-67
2022/10/16 00:07:12;;;;;;;1.60;1.30;;;;;;;20.42;60.32;100801.69;5025347;28;97148;-67
2022/10/16 00:09:38;;;;;;;1.05;1.00;;;;;;;20.35;60.25;100802.28;5023402;28;96958;-66
2022/10/16 00:12:06;;;;;;;1.33;1.02;;;;;;;20.47;60.11;100807.59;5027172;27;98716;-67
2022/10/16 00:14:34;;;;;;;1.58;1.15;;;;;;;20.15;61.00;100811.78;5023726;28;97564;-67
2022/10/16 00:17:00;;;;;;;1.75;1.38;;;;;;;20.48;59.95;100811.13;5026931;28;97206;-66
2022/10/16 00:19:27;;;;;;;4.45;0.90;;;;;;;20.25;60.69;100812.81;5026543;28;96940;-67
2022/10/16 00:21:53;;;;;;;1.77;1.25;;;;;;;20.59;59.62;100813.84;5024357;27;99480;-67
2022/10/16 00:24:20;;;;;;;1.45;1.10;;;;;;;20.40;60.40;100814.38;5025488;27;97708;-66
2022/10/16 00:26:50;;;;;;;2.58;1.20;;;;;;;20.42;60.29;100811.56;5028856;27;98507;-66
2022/10/16 00:29:16;;;;;;;2.70;1.15;;;;;;;20.50;59.88;100819.91;5032951;27;96973;-66
2022/10/16 00:31:44;;;;;;;3.70;1.10;;;;;;;20.56;59.95;100819.44;5031228;28;99326;-67
2022/10/16 00:34:10;;;;;;;1.25;1.10;;;;;;;20.45;60.17;100822.94;5025572;27;98777;-68
2022/10/16 00:36:37;;;;;;;1.83;1.25;;;;;;;20.50;60.12;100830.63;5028688;28;96742;-66
2022/10/16 00:39:04;;;;;;;5.55;1.10;;;;;;;20.42;60.38;100833.88;5032704;28;97251;-66
2022/10/16 00:41:30;;;;;;;1.55;1.08;;;;;;;20.34;60.51;100835.47;5029917;27;99194;-67
2022/10/16 00:43:58;;;;;;;1.20;1.10;;;;;;;20.22;61.00;100832.66;5032860;27;98949;-66
2022/10/16 00:46:27;;;;;;;4.53;1.40;;;;;;;20.42;60.71;100827.66;5040286;27;96954;-67
2022/10/16 00:49:01;;;;;;;2.92;1.38;;;;;;;20.37;60.69;100827.16;5031576;28;96833;-67
2022/10/16 00:51:33;;;;;;;3.95;0.90;;;;;;;20.49;60.16;100829.78;5031753;27;101039;-67
2022/10/16 00:54:00;;;;;;;1.48;1.20;;;;;;;20.57;59.90;100829.19;5031141;28;98887;-67
2022/10/16 00:56:27;;;;;;;2.88;1.13;;;;;;;20.61;59.83;100830.69;5032439;28;96894;-66
2022/10/16 00:58:53;;;;;;;1.52;1.25;;;;;;;20.47;60.17;100839.78;5025971;27;98586;-67
2022/10/16 01:01:20;;;;;;;2.90;1.20;;;;;;;20.37;60.78;100845.94;5025308;27;101655;-66
2022/10/16 01:03:46;;;;;;;1.60;0.90;;;;;;;20.37;60.61;100851.31;5029549;27;98991;-67
2022/10/16 01:06:23;;;;;;;3.28;1.10;;;;;;;20.41;60.49;100842.06;5027883;27;97200;-67
2022/10/16 01:09:01;;;;;;;1.23;1.00;;;;;;;20.19;61.23;100843.63;5028371;27;96788;-67
2022/10/16 01:11:34;;;;;;;1.58;1.10;;;;;;;20.17;61.36;100844.69;5029513;27;101786;-67
2022/10/16 01:14:06;;;;;;;2.42;1.20;;;;;;;20.17;61.71;100839.34;5025211;27;99204;-67
2022/10/16 01:16:45;;;;;;;1.90;1.35;;;;;;;20.09;61.76;100841.72;5028902;27;96941;-67
2022/10/16 01:19:20;;;;;;;2.92;0.90;;;;;;;20.06;61.81;100848.19;5025035;27;97022;-65
2022/10/16 01:21:52;;;;;;;1.30;1.20;;;;;;;20.18;61.33;100847.28;5022342;27;99475;-66
2022/10/16 01:24:32;;;;;;;3.30;1.00;;;;;;;20.16;61.62;100849.22;5029371;27;99216;-67
2022/10/16 01:27:11;;;;;;;2.03;0.90;;;;;;;20.37;60.87;100852.16;5022128;28;97715;-66
2022/10/16 01:29:43;;;;;;;1.58;1.00;;;;;;;20.24;61.22;100852.19;5030325;28;97588;-66
2022/10/16 01:32:17;;;;;;;2.03;0.90;;;;;;;20.28;61.15;100853.66;5029090;28;99200;-65
2022/10/16 01:34:50;;;;;;;2.03;1.30;;;;;;;20.40;60.61;100864.50;5029156;27;99001;-66
2022/10/16 01:37:29;;;;;;;2.33;1.00;;;;;;;20.33;60.83;100864.13;5031898;27;96815;-66
2022/10/16 01:39:59;;;;;;;0.90;0.85;;;;;;;20.30;61.23;100862.47;5029522;27;98698;-67
2022/10/16 01:42:35;;;;;;;1.27;1.00;;;;;;;20.34;60.95;100865.84;5037611;27;99352;-67
2022/10/16 01:45:02;;;;;;;6.15;1.10;;;;;;;20.42;60.67;100866.09;5030921;28;99108;-66
2022/10/16 01:47:32;;;;;;;1.58;0.93;;;;;;;20.19;61.29;100870.47;5030651;28;97725;-66
2022/10/16 01:50:00;;;;;;;2.53;0.80;;;;;;;20.35;61.05;100861.31;5030478;27;98728;-67
2022/10/16 01:52:29;;;;;;;2.15;1.00;;;;;;;20.45;60.80;100867.72;5030088;28;101884;-66
2022/10/16 01:54:58;;;;;;;1.00;0.90;;;;;;;20.47;60.69;100863.09;5030699;28;98112;-66
2022/10/16 01:57:26;;;;;;;1.67;1.27;;;;;;;20.02;62.07;100868.13;5024757;27;96970;-66
2022/10/16 01:59:59;;;;;;;1.00;0.88;;;;;;;20.30;61.36;100873.19;5031483;27;96882;-66
2022/10/16 02:02:29;;;;;;;1.30;1.20;;;;;;;20.46;60.55;100872.97;5030100;27;99676;-67
2022/10/16 02:04:59;;;;;;;2.35;1.27;;;;;;;20.35;60.99;100874.75;5027197;28;97716;-66
2022/10/16 02:07:26;;;;;;;2.45;1.10;;;;;;;20.25;61.10;100880.75;5026148;28;96825;-66
2022/10/16 02:09:52;;;;;;;1.75;1.00;;;;;;;20.43;60.66;100883.91;5023353;27;97167;-66
2022/10/16 02:12:24;;;;;;;4.57;0.90;;;;;;;20.41;60.71;100885.03;5027217;27;98890;-67
2022/10/16 02:14:51;;;;;;;0.90;0.90;;;;;;;20.51;60.48;100891.41;5027483;27;99354;-67
2022/10/16 02:17:19;;;;;;;0.90;0.90;;;;;;;20.39;60.94;100892.31;5028607;28;96790;-66
2022/10/16 02:19:49;;;;;;;3.00;1.00;;;;;;;20.20;61.26;100896.34;5028583;28;97521;-66
2022/10/16 02:22:20;;;;;;;0.82;0.82;;;;;;;20.40;60.74;100908.31;5030780;27;99383;-66
2022/10/16 02:24:53;;;;;;;1.60;0.90;;;;;;;20.51;60.14;100907.50;5023439;28;99630;-67
2022/10/16 02:27:25;;;;;;;4.88;0.90;;;;;;;20.51;60.21;100902.13;5026842;27;98558;-67
2022/10/16 02:29:58;;;;;;;1.30;1.00;;;;;;;20.42;60.29;100900.13;5025659;27;97697;-67
2022/10/16 02:32:31;;;;;;;1.02;0.82;;;;;;;20.47;60.26;100901.53;5028182;28;99477;-67
2022/10/16 02:34:59;;;;;;;0.98;0.90;;;;;;;20.23;60.97;100904.13;5028408;27;97475;-67
2022/10/16 02:37:27;;;;;;;1.67;1.20;;;;;;;20.67;59.59;100903.59;5026771;28;96989;-67
2022/10/16 02:39:55;;;;;;;2.55;0.98;;;;;;;20.42;60.45;100910.84;5027955;27;96847;-66
2022/10/16 02:42:21;;;;;;;3.38;1.40;;;;;;;20.38;60.83;100912.94;5026400;28;97625;-67
2022/10/16 02:44:48;;;;;;;2.45;0.90;;;;;;;20.63;59.93;100911.97;5027194;27;98423;-66
2022/10/16 02:47:14;;;;;;;1.35;0.90;;;;;;;20.53;59.98;100908.25;5026077;28;98878;-67
2022/10/16 02:49:42;;;;;;;1.10;1.00;;;;;;;20.39;60.85;100911.09;5026846;27;96839;-67
2022/10/16 02:52:08;;;;;;;0.90;0.80;;;;;;;20.51;60.22;100916.41;5023461;28;99238;-66
2022/10/16 02:54:35;;;;;;;3.30;1.15;;;;;;;20.39;60.52;100913.78;5027240;27;100735;-67
2022/10/16 02:57:01;;;;;;;1.02;1.00;;;;;;;20.41;60.72;100911.84;5026823;28;98494;-66
2022/10/16 02:59:28;;;;;;;1.17;1.00;;;;;;;20.48;60.31;100911.25;5028992;27;97206;-66
2022/10/16 03:01:54;;;;;;;1.75;1.00;;;;;;;20.38;60.90;100906.69;5023074;27;99382;-66
2022/10/16 03:04:21;;;;;;;1.25;1.00;;;;;;;20.22;61.09;100915.84;5025037;27;99126;-67
2022/10/16 03:06:49;;;;;;;1.50;0.90;;;;;;;20.32;61.11;100910.66;5030097;27;97640;-67
2022/10/16 03:09:15;;;;;;;2.55;1.30;;;;;;;20.09;61.34;100923.06;5026800;28;98283;-67
2022/10/16 03:11:42;;;;;;;2.95;0.95;;;;;;;20.29;61.02;100917.09;5029620;28;98500;-66
2022/10/16 03:14:08;;;;;;;1.02;0.90;;;;;;;20.29;60.75;100917.09;5025138;28;97664;-67
2022/10/16 03:16:35;;;;;;;1.88;1.13;;;;;;;20.19;61.43;100928.63;5025884;28;96862;-66
2022/10/16 03:19:01;;;;;;;2.58;1.23;;;;;;;20.07;61.51;100924.16;5027462;27;96877;-67
2022/10/16 03:21:28;;;;;;;1.90;1.20;;;;;;;20.15;61.20;100927.97;5029934;27;99377;-66
2022/10/16 03:23:56;;;;;;;1.25;1.15;;;;;;;20.10;61.79;100929.28;5025140;28;98553;-66
2022/10/16 03:26:23;;;;;;;4.97;1.40;;;;;;;19.97;62.14;100932.00;5027704;28;96820;-68
2022/10/16 03:28:49;;;;;;;2.00;1.02;;;;;;;20.34;60.88;100929.38;5029125;27;97122;-66
2022/10/16 03:31:15;;;;;;;3.33;0.90;;;;;;;19.98;61.87;100941.75;5026696;28;99369;-66
2022/10/16 03:33:42;;;;;;;1.90;1.40;;;;;;;19.79;62.63;100938.66;5028569;28;101392;-66
2022/10/16 03:36:08;;;;;;;1.73;1.08;;;;;;;19.96;62.21;100943.69;5020922;27;98418;-66
2022/10/16 03:38:35;;;;;;;1.67;1.00;;;;;;;20.13;61.61;100945.16;5028192;27;96806;-66
2022/10/16 03:41:03;;;;;;;2.75;0.88;;;;;;;19.86;62.34;100948.00;5028691;27;98954;-67
2022/10/16 03:43:30;;;;;;;1.40;1.00;;;;;;;19.90;62.25;100954.84;5029579;28;101420;-67
2022/10/16 03:45:56;;;;;;;1.35;1.10;;;;;;;19.84;62.83;100963.31;5028112;28;97376;-67
2022/10/16 03:48:23;;;;;;;1.20;0.95;;;;;;;20.15;61.46;100953.97;5029492;28;96957;-66
2022/10/16 03:50:50;;;;;;;2.30;1.08;;;;;;;19.81;62.67;100972.47;5028795;27;100811;-66
2022/10/16 03:53:17;;;;;;;1.58;1.00;;;;;;;19.83;62.78;100975.88;5028231;27;98195;-66
2022/10/16 03:55:43;;;;;;;1.50;1.10;;;;;;;20.15;61.85;100978.13;5025339;27;96963;-67
2022/10/16 03:58:12;;;;;;;1.55;1.25;;;;;;;20.22;61.57;100980.22;5026340;28;96891;-66
2022/10/16 04:00:41;;;;;;;2.72;1.23;;;;;;;19.90;62.06;100985.22;5028400;28;99537;-66
2022/10/16 04:03:07;;;;;;;1.63;1.15;;;;;;;19.95;62.58;100984.91;5027732;28;101972;-67
2022/10/16 04:05:34;;;;;;;1.38;1.17;;;;;;;19.96;62.15;100978.53;5028721;28;97827;-65
2022/10/16 04:08:00;;;;;;;1.83;0.98;;;;;;;19.92;62.33;100985.09;5027554;28;98415;-67
2022/10/16 04:10:26;;;;;;;1.75;1.10;;;;;;;20.02;62.31;100991.53;5023972;27;99575;-66
2022/10/16 04:12:55;;;;;;;2.20;1.30;;;;;;;20.01;62.01;100997.88;5025906;28;99013;-66
2022/10/16 04:15:23;;;;;;;3.40;1.13;;;;;;;19.94;62.30;100993.91;5023895;28;97839;-65
2022/10/16 04:17:49;;;;;;;1.92;1.23;;;;;;;19.95;62.41;100990.28;5018888;28;96945;-66
2022/10/16 04:20:16;;;;;;;1.73;1.08;;;;;;;19.76;62.71;100995.19;5023081;27;98868;-66
2022/10/16 04:22:45;;;;;;;1.88;1.10;;;;;;;19.79;62.46;101000.34;5026950;28;98850;-69
2022/10/16 04:25:12;;;;;;;1.20;1.10;;;;;;;19.77;62.89;100996.91;5024246;28;96846;-66
2022/10/16 04:27:38;;;;;;;2.05;1.42;;;;;;;19.75;62.89;100994.34;5025299;27;97043;-67
2022/10/16 04:30:07;;;;;;;1.10;1.00;;;;;;;19.71;63.07;100989.28;5024963;27;98897;-66
2022/10/16 04:32:34;;;;;;;1.98;1.10;;;;;;;19.77;62.73;100972.75;5022607;28;99147;-66
2022/10/16 04:35:01;;;;;;;1.13;1.02;;;;;;;19.93;62.39;100978.78;5023461;28;96801;-68
2022/10/16 04:37:28;;;;;;;1.27;1.17;;;;;;;19.71;62.53;100974.06;5025329;28;98870;-67
2022/10/16 04:39:54;;;;;;;5.55;1.40;;;;;;;19.69;62.57;100978.66;5021705;27;97895;-66
2022/10/16 04:42:21;;;;;;;2.25;1.05;;;;;;;19.71;62.65;100974.06;5022495;27;97542;-67
2022/10/16 04:44:47;;;;;;;1.60;1.00;;;;;;;20.00;61.74;100981.88;5025650;27;96851;-66
2022/10/16 04:47:14;;;;;;;2.33;1.40;;;;;;;19.97;62.07;100961.50;5027909;28;96713;-67
2022/10/16 04:49:42;;;;;;;2.83;1.25;;;;;;;20.00;61.85;100961.28;5025882;27;99382;-66
2022/10/16 04:52:09;;;;;;;2.92;1.20;;;;;;;19.73;62.32;100974.81;5024659;28;99488;-66
2022/10/16 04:54:35;;;;;;;4.88;1.20;;;;;;;19.46;63.46;100971.38;5021779;28;96879;-67
2022/10/16 04:57:02;;;;;;;2.35;1.58;;;;;;;19.76;62.46;100963.00;5019634;28;97071;-66
2022/10/16 04:59:28;;;;;;;1.30;1.20;;;;;;;19.71;62.59;100966.00;5024675;27;99042;-66
2022/10/16 05:01:55;;;;;;;1.85;1.33;;;;;;;19.79;62.41;100978.88;5026969;27;99385;-66
2022/10/16 05:04:21;;;;;;;1.27;1.15;;;;;;;19.64;62.88;100982.63;5025124;27;98281;-67
2022/10/16 05:06:49;;;;;;;6.10;1.25;;;;;;;19.65;62.81;100992.38;5024597;28;96915;-66
2022/10/16 05:09:16;;;;;;;1.50;1.08;;;;;;;19.69;62.30;101005.47;5025948;27;99001;-67
2022/10/16 05:11:42;;;;;;;1.67;1.20;;;;;;;19.64;62.40;101014.78;5028746;27;98892;-66
2022/10/16 05:14:09;;;;;;;1.40;1.30;;;;;;;19.62;62.73;101016.75;5025281;27;96916;-68
2022/10/16 05:16:35;;;;;;;1.63;1.52;;;;;;;19.55;63.17;101020.81;5032644;27;96966;-66
2022/10/16 05:19:02;;;;;;;2.78;1.30;;;;;;;19.45;63.59;101009.81;5027977;27;98925;-67
2022/10/16 05:21:28;;;;;;;1.98;1.30;;;;;;;19.65;62.83;101014.69;5030759;27;98946;-68
2022/10/16 05:23:56;;;;;;;3.30;1.20;;;;;;;19.43;63.51;101019.75;5027800;27;99008;-64
2022/10/16 05:26:23;;;;;;;1.83;1.50;;;;;;;19.61;62.85;101013.22;5027787;27;96851;-66
2022/10/16 05:28:50;;;;;;;1.60;1.23;;;;;;;19.75;62.78;101009.56;5029216;27;98974;-66
2022/10/16 05:31:17;;;;;;;1.73;1.40;;;;;;;19.61;62.96;101002.47;5029167;27;97425;-65
2022/10/16 05:33:46;;;;;;;2.17;1.50;;;;;;;19.56;63.20;101001.09;5031291;27;96986;-67
2022/10/16 05:36:13;;;;;;;1.88;1.15;;;;;;;19.45;63.07;101008.00;5026765;27;97387;-67
2022/10/16 05:38:40;;;;;;;2.55;2.00;;;;;;;19.71;62.71;101013.41;5032256;28;99462;-67
2022/10/16 05:41:08;;;;;;;4.47;1.42;;;;;;;19.84;62.42;101025.00;5032097;28;98102;-66
2022/10/16 05:43:35;;;;;;;1.85;1.30;;;;;;;19.93;61.84;101037.78;5030020;28;97596;-68
2022/10/16 05:46:05;;;;;;;2.03;1.30;;;;;;;19.46;63.30;101033.88;5031477;28;96906;-68
2022/10/16 05:48:32;;;;;;;3.45;1.17;;;;;;;19.68;63.00;101037.78;5030735;27;97970;-67
2022/10/16 05:51:00;;;;;;;2.05;1.48;;;;;;;19.63;62.83;101034.53;5037435;27;98812;-67
2022/10/16 05:53:28;;;;;;;1.83;1.50;;;;;;;19.38;63.71;101033.47;5031227;28;96917;-67
2022/10/16 05:55:56;;;;;;;6.03;1.63;;;;;;;19.70;62.34;101033.13;5030446;27;97008;-66
2022/10/16 05:58:25;;;;;;;1.40;1.30;;;;;;;19.65;62.55;101025.41;5031823;27;99014;-67
2022/10/16 06:00:56;;;;;;;2.15;1.27;;;;;;;19.65;62.66;101030.78;5031924;28;99331;-67
2022/10/16 06:03:23;;;;;;;2.95;1.27;;;;;;;19.84;62.17;101030.38;5031878;28;97037;-66
2022/10/16 06:05:49;;;;;;;5.68;1.60;;;;;;;19.62;62.48;101028.34;5029914;27;96765;-67
2022/10/16 06:08:20;;;;;;;4.30;1.42;;;;;;;19.82;61.92;101027.78;5028406;27;101870;-67
2022/10/16 06:10:48;;;;;;;2.60;1.50;;;;;;;20.03;61.17;101040.66;5026935;27;101603;-67
2022/10/16 06:13:15;;;;;;;5.00;1.70;;;;;;;20.02;61.05;101045.16;5025715;27;98705;-66
2022/10/16 06:15:43;;;;;;;2.30;1.50;;;;;;;19.65;62.53;101046.00;5028187;27;97045;-67
2022/10/16 06:18:10;;;;;;;2.22;1.50;;;;;;;19.87;61.71;101051.63;5029272;27;99122;-68
2022/10/16 06:20:37;;;;;;;1.48;1.30;;;;;;;19.86;62.03;101052.59;5027555;27;98115;-67
2022/10/16 06:23:04;;;;;;;3.90;1.52;;;;;;;20.01;61.18;101051.53;5027323;27;96844;-67
2022/10/16 06:25:31;;;;;;;2.25;1.45;;;;;;;20.04;61.31;101053.13;5027822;27;96897;-68
2022/10/16 06:27:57;;;;;;;3.30;1.52;;;;;;;20.05;60.99;101049.47;5022772;27;97876;-67
2022/10/16 06:30:24;;;;;;;6.20;1.50;;;;;;;20.09;60.76;101061.69;5026761;27;98559;-69
2022/10/16 06:32:52;;;;;;;2.70;1.30;;;;;;;20.05;60.69;101057.53;5025490;27;97063;-68
2022/10/16 06:35:18;;;;;;;1.80;1.70;;;;;;;20.05;60.75;101066.44;5026259;28;96882;-68
2022/10/16 06:37:45;;;;;;;1.65;1.20;;;;;;;20.19;60.43;101071.69;5026853;27;99802;-67
2022/10/16 06:40:11;;;;;;;1.92;1.58;;;;;;;20.16;60.89;101077.25;5027480;28;98879;-66
2022/10/16 06:42:38;;;;;;;1.45;1.30;;;;;;;20.20;60.42;101077.91;5022908;28;98291;-70
2022/10/16 06:45:05;;;;;;;2.45;1.55;;;;;;;20.38;59.91;101089.19;5029373;27;97074;-67
2022/10/16 06:47:31;;;;;;;2.60;1.40;;;;;;;20.18;60.38;101082.53;5028773;28;97777;-67
2022/10/16 06:49:59;;;;;;;2.95;1.20;;;;;;;20.11;60.76;101098.19;5027075;27;101758;-70
2022/10/16 06:52:28;;;;;;;6.63;1.50;;;;;;;20.34;60.16;101087.72;5027988;27;96891;-67
2022/10/16 06:54:55;;;;;;;3.03;1.70;;;;;;;20.43;59.98;101087.03;5026878;27;97123;-67
2022/10/16 06:57:21;;;;;;;2.13;1.38;;;;;;;20.05;61.02;101093.25;5029462;28;99192;-68
2022/10/16 06:59:48;;;;;;;4.80;1.20;;;;;;;19.93;61.70;101093.25;5024320;28;98831;-67
2022/10/16 07:02:14;;;;;;;4.38;1.70;;;;;;;20.54;60.04;101103.25;5020352;28;98803;-67
2022/10/16 07:04:41;;;;;;;2.70;1.40;;;;;;;20.64;59.98;101096.25;5028002;28;96826;-67
2022/10/16 07:07:09;;;;;;;2.58;1.30;;;;;;;20.63;59.40;101107.94;5024722;28;99344;-67
2022/10/16 07:09:35;;;;;;;3.45;1.35;;;;;;;20.90;59.00;101107.78;5026197;27;98842;-67
2022/10/16 07:12:02;;;;;;;1.20;1.10;;;;;;;20.67;59.52;101117.53;5028616;27;96711;-66
2022/10/16 07:14:29;;;;;;;2.88;1.17;;;;;;;21.12;58.40;101128.59;5025121;28;96907;-68
2022/10/16 07:16:56;;;;;;;1.42;1.30;;;;;;;21.18;57.88;101122.78;5022863;27;101346;-67
2022/10/16 07:19:23;;;;;;;1.40;1.00;;;;;;;21.05;57.99;101126.34;5026447;27;99164;-67
2022/10/16 07:21:49;;;;;;;1.48;1.08;;;;;;;21.17;57.87;101121.06;5025967;27;97780;-68
2022/10/16 07:24:17;;;;;;;1.83;1.05;;;;;;;21.04;58.15;101119.25;5026267;27;97576;-67
2022/10/16 07:26:46;;;;;;;1.45;1.02;;;;;;;21.23;57.93;101120.63;5023460;27;98922;-67
2022/10/16 07:29:14;;;;;;;2.42;1.10;;;;;;;21.26;57.90;101121.25;5023222;27;98151;-67
2022/10/16 07:31:40;;;;;;;5.43;1.13;;;;;;;21.47;57.20;101116.09;5026912;27;96842;-67
2022/10/16 07:34:07;;;;;;;1.42;1.00;;;;;;;21.38;57.28;101114.97;5019702;27;98493;-67
2022/10/16 07:36:34;;;;;;;1.17;1.00;;;;;;;21.31;57.74;101102.09;5025216;27;99331;-68
2022/10/16 07:39:00;;;;;;;1.25;1.10;;;;;;;21.28;57.85;101113.91;5021416;27;99841;-67
2022/10/16 07:41:28;;;;;;;1.23;1.10;;;;;;;21.31;57.66;101124.47;5025242;28;97115;-66
2022/10/16 07:43:57;;;;;;;1.88;0.98;;;;;;;21.51;57.15;101124.81;5022812;28;96972;-67
2022/10/16 07:46:24;;;;;;;4.68;1.05;;;;;;;21.19;57.42;101130.75;5020093;27;98909;-67
2022/10/16 07:48:51;;;;;;;1.40;1.20;;;;;;;21.47;57.34;101124.16;5022023;27;99300;-69
2022/10/16 07:51:19;;;;;;;1.38;1.00;;;;;;;21.47;57.37;101116.09;5022769;27;98482;-67
2022/10/16 07:53:46;;;;;;;1.52;0.80;;;;;;;21.34;57.53;101129.59;5015927;27;98890;-67
2022/10/16 07:56:14;;;;;;;1.80;0.90;;;;;;;21.14;58.23;101121.25;5022621;28;98190;-67
2022/10/16 07:58:43;;;;;;;0.90;0.90;;;;;;;21.26;58.01;101117.72;5021690;27;99240;-67
2022/10/16 08:01:12;;;;;;;2.92;0.93;;;;;;;21.27;57.94;101127.47;5022366;27;97650;-68
2022/10/16 08:03:42;;;;;;;3.33;1.35;;;;;;;21.28;58.00;101140.81;5024539;27;98851;-68
2022/10/16 08:06:08;;;;;;;4.50;0.90;;;;;;;21.45;57.74;101148.50;5017716;27;97760;-67
2022/10/16 08:08:35;;;;;;;3.13;1.10;;;;;;;21.43;57.76;101160.31;5021956;27;99524;-66
2022/10/16 08:11:03;;;;;;;2.08;1.05;;;;;;;21.35;57.90;101158.19;5025810;27;97777;-66
2022/10/16 08:13:30;;;;;;;2.47;0.95;;;;;;;21.58;57.35;101169.94;5024154;27;96848;-66
2022/10/16 08:15:58;;;;;;;0.73;0.73;;;;;;;21.67;56.61;101169.22;5022311;27;99345;-67
2022/10/16 08:18:25;;;;;;;1.63;1.00;;;;;;;21.76;56.93;101168.56;5020899;27;98874;-68
2022/10/16 08:20:57;;;;;;;2.67;0.90;;;;;;;21.62;57.17;101147.22;5021483;27;98397;-67
2022/10/16 08:23:25;;;;;;;2.88;0.93;;;;;;;21.75;56.78;101156.06;5022365;27;98645;-67
2022/10/16 08:25:52;;;;;;;1.92;1.17;;;;;;;21.68;56.86;101156.66;5017218;27;99291;-66
2022/10/16 08:28:19;;;;;;;3.35;1.35;;;;;;;21.81;56.74;101163.69;5024346;27;99458;-67
2022/10/16 08:30:45;;;;;;;4.30;1.30;;;;;;;21.80;56.66;101155.72;5016894;27;97353;-67
2022/10/16 08:33:13;;;;;;;1.95;1.00;;;;;;;21.78;57.00;101168.44;5026288;28;96789;-67
2022/10/16 08:35:39;;;;;;;2.80;0.90;;;;;;;21.79;56.77;101168.31;5016804;27;99032;-67
2022/10/16 08:38:07;;;;;;;1.02;1.00;;;;;;;21.56;57.41;101177.25;5024570;27;99246;-68
2022/10/16 08:40:37;;;;;;;0.95;0.88;;;;;;;21.59;57.47;101168.97;5020585;27;98257;-67
2022/10/16 08:43:21;;;;;;;1.00;0.95;;;;;;;21.71;57.06;101168.06;5018832;27;97985;-67
2022/10/16 08:46:03;;;;;;;5.03;1.23;;;;;;;21.87;56.82;101165.03;5024558;27;99558;-70
2022/10/16 08:48:36;;;;;;;0.93;0.93;;;;;;;21.92;56.49;101170.09;5022610;28;98827;-68
2022/10/16 08:51:05;;;;;;;3.15;1.15;;;;;;;22.03;56.06;101162.94;5025160;27;97706;-69
2022/10/16 08:53:41;;;;;;;4.57;1.85;;;;;;;21.78;56.70;101169.31;5026483;27;97098;-67
2022/10/16 08:56:08;;;;;;;0.77;0.77;;;;;;;21.86;56.92;101169.56;5025511;27;99479;-68
2022/10/16 08:58:34;;;;;;;0.82;0.82;;;;;;;22.12;55.90;101182.91;5024069;27;98860;-67
2022/10/16 09:01:04;;;;;;;3.35;1.77;;;;;;;22.02;55.71;101184.56;5026482;27;97330;-68
2022/10/16 09:03:50;;;;;;;1.13;0.85;;;;;;;22.18;55.35;101193.22;5028846;27;97875;-67
2022/10/16 09:06:37;;;;;;;1.27;0.90;;;;;;;22.40;55.06;101192.38;5018987;27;99431;-68
2022/10/16 09:09:19;;;;;;;;;;;;;;;22.41;54.65;101207.56;5026486;27;101671;-68
2022/10/16 09:11:55;;;;;;;1.73;0.80;;;;;;;22.53;54.16;101204.78;5023250;28;97015;-67
2022/10/16 09:14:38;;;;;;;2.60;0.75;;;;;;;22.36;54.77;101205.25;5025920;27;97460;-69
2022/10/16 09:17:20;;;;;;;2.20;0.80;;;;;;;22.42;54.58;101210.16;5023242;28;98752;-70
2022/10/16 09:19:55;;;;;;;3.05;0.77;;;;;;;22.40;54.64;101205.84;5024677;28;99414;-69
2022/10/16 09:22:25;;;;;;;1.42;0.95;;;;;;;22.55;54.51;101207.34;5022308;28;99034;-68
2022/10/16 09:24:52;;;;;;;1.88;0.63;;;;;;;22.63;54.20;101200.41;5020782;27;97298;-67
2022/10/16 09:27:19;;;;;;;1.40;0.55;;;;;;;22.61;54.11;101205.03;5027410;28;97256;-68
2022/10/16 09:29:45;;;;;;;1.00;0.77;;;;;;;22.35;54.75;101200.81;5027040;27;98789;-68
2022/10/16 09:32:15;;;;;;;6.97;0.77;;;;;;;22.37;54.45;101204.28;5023670;27;97143;-67
2022/10/16 09:34:44;;;;;;;2.35;0.90;;;;;;;22.45;54.41;101199.13;5024840;27;97114;-67
2022/10/16 09:37:15;;;;;;;4.00;0.90;;;;;;;22.32;55.05;101213.69;5025146;27;99294;-67
2022/10/16 09:39:46;;;;;;;1.42;0.65;;;;;;;22.30;54.87;101211.09;5021056;27;98904;-68
2022/10/16 09:42:18;;;;;;;2.88;0.70;;;;;;;22.17;55.20;101221.09;5019520;27;99046;-69
2022/10/16 09:44:49;;;;;;;2.38;0.60;;;;;;;22.58;54.53;101218.72;5017311;27;97287;-68
2022/10/16 09:47:20;;;;;;;0.82;0.73;;;;;;;22.60;53.71;101214.09;5025090;27;101705;-68
2022/10/16 09:49:54;;;;;;;3.83;0.77;;;;;;;22.67;53.35;101228.78;5025037;27;99994;-68
2022/10/16 09:52:23;;;;;;;1.25;0.70;;;;;;;22.67;53.37;101236.03;5031447;27;97138;-67
2022/10/16 09:54:51;;;;;;;2.05;0.60;;;;;;;22.80;53.35;101235.94;5019233;27;98643;-67
2022/10/16 09:57:18;;;;;;;0.90;0.70;;;;;;;22.46;53.77;101238.53;5027247;27;97968;-66
2022/10/16 09:59:48;;;;;;;5.03;0.90;;;;;;;22.59;53.58;101239.31;5021122;27;99861;-67
2022/10/16 10:02:16;;;;;;;1.30;1.00;;;;;;;22.79;53.16;101239.59;5024573;27;97077;-68
2022/10/16 10:04:50;;;;;;;0.55;0.50;;;;;;;23.20;52.32;101239.03;5025155;27;97203;-68
2022/10/16 10:07:21;;;;;;;1.63;0.70;;;;;;;23.18;51.85;101239.13;5020374;27;99185;-69
2022/10/16 10:09:49;;;;;;;1.00;0.60;;;;;;;23.12;51.84;101255.81;5022056;27;99173;-67
2022/10/16 10:12:19;;;;;;;1.10;0.70;;;;;;;23.12;52.07;101253.09;5006779;27;98654;-69
2022/10/16 10:14:48;;;;;;;3.22;0.70;;;;;;;23.19;51.44;101251.63;5009453;27;99818;-68
2022/10/16 10:17:18;;;;;;;1.40;0.60;;;;;;;22.88;51.86;101247.84;5018769;27;99709;-68
2022/10/16 10:19:49;;;;;;;1.38;0.55;;;;;;;22.58;52.13;101253.75;5014555;27;98867;-67
2022/10/16 10:22:29;;;;;;;1.17;0.60;;;;;;;22.86;51.98;101260.56;5020474;27;97343;-69
2022/10/16 10:25:13;;;;;;;3.20;0.85;;;;;;;22.77;51.84;101255.06;5022731;27;98148;-68
2022/10/16 10:27:49;;;;;;;1.85;0.60;;;;;;;22.60;52.26;101257.19;5021146;27;99159;-69
2022/10/16 10:30:23;;;;;;;3.33;0.60;;;;;;;22.65;51.82;101262.19;5026085;27;99451;-69
2022/10/16 10:33:17;;;;;;;1.00;0.57;;;;;;;22.62;51.89;101266.00;5024481;27;96750;-67
2022/10/16 10:35:50;;;;;;;1.33;0.50;;;;;;;22.88;51.31;101269.41;5017837;27;98901;-68
2022/10/16 10:38:31;;;;;;;2.63;0.50;;;;;;;22.90;50.88;101280.91;5021600;27;98623;-68
2022/10/16 10:41:21;;;;;;;0.85;0.50;;;;;;;22.54;51.58;101286.44;5018577;27;99190;-67
2022/10/16 10:44:02;;;;;;;1.30;0.80;;;;;;;23.08;50.32;101280.44;5016338;27;97173;-67
2022/10/16 10:46:33;;;;;;;2.13;0.60;;;;;;;22.98;50.20;101281.16;5023518;27;97902;-68
2022/10/16 10:49:14;;;;;;;6.80;0.77;;;;;;;23.01;50.42;101266.59;5022917;28;99000;-68
2022/10/16 10:51:56;;;;;;;4.13;0.52;;;;;;;23.35;49.54;101272.84;5023681;28;101103;-67
2022/10/16 10:54:38;;;;;;;1.73;0.50;;;;;;;23.40;49.06;101271.47;5032862;27;96861;-67
2022/10/16 10:57:16;;;;;;;0.75;0.52;;;;;;;23.47;49.10;101284.47;5021784;27;98536;-67
2022/10/16 11:00:04;;;;;;;0.73;0.57;;;;;;;23.71;48.38;101277.09;5024682;27;99656;-72
2022/10/16 11:02:38;;;;;;;2.05;0.45;;;;;;;24.22;47.10;101272.78;5027303;27;97821;-67
2022/10/16 11:05:39;;;;;;;1.65;0.95;;;;;;;24.33;46.67;101266.50;5027811;27;96766;-68
2022/10/16 11:08:11;;;;;;;2.35;0.52;;;;;;;24.53;45.66;101275.59;5023393;28;96801;-67
2022/10/16 11:10:46;;;;;;;1.30;0.60;;;;;;;24.04;46.80;101282.41;5028950;28;97747;-67
2022/10/16 11:13:32;;;;;;;2.97;0.50;;;;;;;24.36;46.36;101285.13;5028914;28;99196;-68
2022/10/16 11:16:02;;;;;;;0.45;0.45;;;;;;;24.21;46.27;101281.91;5024699;28;97097;-67
2022/10/16 11:18:42;;;;;;;0.85;0.40;;;;;;;24.29;45.71;101277.66;5024106;27;97613;-68
2022/10/16 11:21:13;;;;;;;0.80;0.52;;;;;;;24.25;45.33;101273.53;5028928;28;98912;-68
2022/10/16 11:23:48;;;;;;;6.03;0.70;;;;;;;24.18;45.67;101278.56;5028615;27;99274;-68
2022/10/16 11:26:20;;;;;;;1.58;1.08;;;;;;;24.17;46.31;101268.72;5025767;28;96820;-67
2022/10/16 11:28:51;;;;;;;0.90;0.45;;;;;;;23.95;46.05;101280.50;5028960;27;96906;-68
2022/10/16 11:31:25;;;;;;;2.28;0.30;;;;;;;23.77;46.22;101279.28;5027314;28;98968;-69
2022/10/16 11:34:00;;;;;;;0.90;0.32;;;;;;;23.54;46.57;101275.78;5033244;27;98796;-68
2022/10/16 11:36:36;;;;;;;3.55;0.57;;;;;;;23.48;46.59;101281.69;5028059;27;98195;-68